Time;durP1;ratioP1;P1;durP2;ratioP2;P2;SDS_P1;SDS_P2;PMS_P1;PMS_P2;Temp;Humidity;BMP_temperature;BMP_pressure;BME280_temperature;BME280_humidity;BME280_pressure;Samples;Min_cycle;Max_cycle;Signal;HPM_P1;HPM_P2
2023/06/10 00:01:37;;;;;;;5.10;4.70;;;23.10;88.90;;;;;;5038646;28;20491;-60
2023/06/10 00:04:05;;;;;;;4.97;4.57;;;23.10;88.90;;;;;;5040211;28;20937;-60
2023/06/10 00:06:35;;;;;;;4.83;4.43;;;23.10;88.90;;;;;;5037809;28;20553;-59
2023/06/10 00:09:04;;;;;;;4.20;3.90;;;23.10;88.90;;;;;;5030195;28;21380;-59
2023/06/10 00:11:31;;;;;;;5.17;4.67;;;23.10;88.90;;;;;;5036747;28;20490;-59
2023/06/10 00:13:59;;;;;;;6.13;4.80;;;23.10;88.90;;;;;;5037058;28;20454;-59
2023/06/10 00:16:26;;;;;;;4.73;4.33;;;23.10;88.90;;;;;;5036525;28;21307;-59
2023/06/10 00:18:52;;;;;;;7.00;4.40;;;23.10;88.90;;;;;;5036416;28;20468;-59
2023/06/10 00:21:20;;;;;;;5.30;4.80;;;23.10;89.00;;;;;;5036283;28;20481;-59
2023/06/10 00:23:46;;;;;;;5.67;5.17;;;23.10;88.90;;;;;;5047035;28;20472;-60
2023/06/10 00:26:13;;;;;;;5.10;4.70;;;23.10;89.00;;;;;;5039382;28;20469;-59
2023/06/10 00:28:40;;;;;;;5.00;4.60;;;23.10;89.00;;;;;;5043518;28;20945;-59
2023/06/10 00:31:08;;;;;;;5.10;4.70;;;23.10;89.00;;;;;;5028954;28;20477;-59
2023/06/10 00:33:35;;;;;;;4.77;4.30;;;23.00;88.90;;;;;;5030784;28;20866;-60
2023/06/10 00:36:02;;;;;;;5.50;5.00;;;23.00;88.90;;;;;;5050415;28;20541;-59
2023/06/10 00:38:28;;;;;;;4.60;4.30;;;23.10;89.00;;;;;;5040179;28;20463;-59
2023/06/10 00:40:55;;;;;;;5.30;4.90;;;23.00;88.90;;;;;;5042656;28;20482;-59
2023/06/10 00:43:22;;;;;;;5.03;4.53;;;23.10;89.00;;;;;;5033611;28;20457;-60
2023/06/10 00:45:49;;;;;;;4.80;4.40;;;23.00;88.90;;;;;;5036279;28;20462;-59
2023/06/10 00:48:17;;;;;;;5.00;4.60;;;23.10;89.00;;;;;;5036542;28;20990;-59
2023/06/10 00:50:43;;;;;;;5.37;4.97;;;23.10;89.00;;;;;;5044297;28;20457;-60
2023/06/10 00:53:11;;;;;;;5.67;5.23;;;23.10;89.00;;;;;;5035513;28;20466;-59
2023/06/10 00:55:38;;;;;;;5.37;4.97;;;23.00;88.90;;;;;;5040176;28;20980;-60
2023/06/10 00:58:05;;;;;;;5.60;5.10;;;23.00;89.00;;;;;;5036461;28;20484;-59
2023/06/10 01:00:31;;;;;;;7.90;5.80;;;23.10;89.00;;;;;;5029238;28;20480;-59
2023/06/10 01:02:58;;;;;;;5.40;5.00;;;23.10;89.10;;;;;;5032939;28;20450;-59
2023/06/10 01:05:27;;;;;;;4.83;4.53;;;23.00;89.00;;;;;;5032294;28;20457;-60
2023/06/10 01:08:02;;;;;;;5.50;5.10;;;23.00;89.00;;;;;;5032222;28;20469;-59
2023/06/10 01:10:44;;;;;;;4.53;4.13;;;23.10;89.10;;;;;;5039412;28;20488;-59
2023/06/10 01:13:12;;;;;;;4.97;4.57;;;23.00;88.90;;;;;;5036817;28;20457;-59
2023/06/10 01:15:39;;;;;;;4.73;4.43;;;23.10;89.00;;;;;;5035718;28;20450;-59
2023/06/10 01:18:09;;;;;;;6.17;5.57;;;23.00;88.90;;;;;;5046134;28;20461;-60
2023/06/10 01:20:40;;;;;;;4.33;4.00;;;23.10;89.00;;;;;;5044890;28;21058;-59
2023/06/10 01:23:08;;;;;;;4.47;4.13;;;23.00;88.90;;;;;;5038234;28;20525;-60
2023/06/10 01:25:38;;;;;;;4.73;4.43;;;23.00;88.90;;;;;;5042461;28;20465;-59
2023/06/10 01:28:11;;;;;;;4.80;4.47;;;23.00;88.90;;;;;;5035123;28;20978;-59
2023/06/10 01:30:45;;;;;;;5.50;5.10;;;23.00;88.90;;;;;;5033352;28;20466;-60
2023/06/10 01:33:14;;;;;;;6.20;5.60;;;23.00;89.00;;;;;;5035369;28;20457;-59
2023/06/10 01:35:44;;;;;;;5.07;4.67;;;23.00;88.90;;;;;;5035180;28;20485;-59
2023/06/10 01:38:15;;;;;;;6.10;5.60;;;23.00;88.90;;;;;;5040577;28;20462;-59
2023/06/10 01:40:43;;;;;;;5.77;5.37;;;23.00;89.00;;;;;;5033253;28;20492;-59
2023/06/10 01:43:09;;;;;;;5.73;5.33;;;23.00;88.90;;;;;;5042865;28;20461;-59
2023/06/10 01:45:36;;;;;;;5.70;5.20;;;23.00;88.90;;;;;;5032739;28;20461;-59
2023/06/10 01:48:03;;;;;;;5.07;4.67;;;23.00;88.80;;;;;;5031293;28;20552;-59
2023/06/10 01:50:29;;;;;;;5.37;4.97;;;23.00;88.80;;;;;;5030939;28;20524;-60
2023/06/10 01:52:59;;;;;;;5.70;5.13;;;23.00;88.80;;;;;;5035987;28;20453;-59
2023/06/10 01:55:27;;;;;;;5.87;5.43;;;23.00;88.90;;;;;;5033983;28;20481;-59
2023/06/10 01:57:53;;;;;;;5.37;4.90;;;23.00;88.90;;;;;;5034010;28;20463;-59
2023/06/10 02:00:20;;;;;;;4.67;4.27;;;23.00;88.90;;;;;;5042959;28;20921;-59
2023/06/10 02:02:47;;;;;;;4.77;4.47;;;23.00;88.90;;;;;;5042413;28;20464;-59
2023/06/10 02:05:13;;;;;;;4.90;4.60;;;23.00;88.90;;;;;;5032595;28;20474;-60
2023/06/10 02:07:40;;;;;;;5.10;4.60;;;23.00;88.90;;;;;;5036667;28;20470;-60
2023/06/10 02:10:08;;;;;;;5.17;4.77;;;23.00;88.80;;;;;;5035836;28;20469;-59
2023/06/10 02:12:36;;;;;;;4.40;4.10;;;23.00;88.90;;;;;;5038671;28;20794;-60
2023/06/10 02:15:03;;;;;;;5.70;5.30;;;23.00;88.70;;;;;;5031785;28;20489;-60
2023/06/10 02:17:30;;;;;;;5.37;4.97;;;23.00;88.70;;;;;;5039960;28;20519;-59
2023/06/10 02:19:59;;;;;;;5.53;5.13;;;23.00;88.70;;;;;;5033346;28;20458;-59
2023/06/10 02:22:26;;;;;;;5.63;5.20;;;23.00;88.70;;;;;;5036573;28;20492;-59
2023/06/10 02:24:53;;;;;;;5.50;4.43;;;23.00;88.70;;;;;;5035594;28;20489;-59
2023/06/10 02:27:19;;;;;;;5.53;5.13;;;23.00;88.80;;;;;;5036120;28;20453;-60
2023/06/10 02:29:47;;;;;;;5.80;5.27;;;23.00;88.80;;;;;;5034299;28;20886;-60
2023/06/10 02:32:14;;;;;;;5.37;4.97;;;23.00;88.70;;;;;;5040680;28;21003;-60
2023/06/10 02:34:42;;;;;;;5.23;4.83;;;23.00;88.70;;;;;;5030854;28;20458;-59
2023/06/10 02:37:09;;;;;;;5.40;5.00;;;23.00;88.80;;;;;;5043458;28;20472;-60
2023/06/10 02:39:35;;;;;;;4.70;4.40;;;23.00;88.70;;;;;;5040926;28;20472;-60
2023/06/10 02:42:02;;;;;;;4.87;4.47;;;23.00;88.70;;;;;;5040836;28;20539;-60
2023/06/10 02:44:29;;;;;;;4.83;4.43;;;23.00;88.70;;;;;;5044446;28;20843;-59
2023/06/10 02:46:57;;;;;;;4.80;4.47;;;23.00;88.70;;;;;;5037047;28;20960;-60
2023/06/10 02:49:23;;;;;;;5.47;5.07;;;23.00;88.70;;;;;;5034537;28;20512;-60
2023/06/10 02:51:53;;;;;;;5.40;5.00;;;23.00;88.70;;;;;;5045528;28;20462;-59
2023/06/10 02:54:20;;;;;;;4.50;4.20;;;23.00;88.70;;;;;;5030516;28;20544;-60
2023/06/10 02:56:47;;;;;;;4.57;4.17;;;23.00;88.70;;;;;;5041964;28;20453;-60
2023/06/10 02:59:14;;;;;;;6.00;5.50;;;23.00;88.70;;;;;;5037844;28;21401;-59
2023/06/10 03:01:41;;;;;;;5.10;4.70;;;23.00;88.70;;;;;;5045278;28;20474;-59
2023/06/10 03:04:09;;;;;;;5.13;4.73;;;23.00;88.70;;;;;;5039530;28;20477;-59
2023/06/10 03:06:38;;;;;;;5.13;4.73;;;23.00;88.70;;;;;;5045262;28;20973;-59
2023/06/10 03:09:05;;;;;;;4.90;4.50;;;23.00;88.70;;;;;;5028787;28;20461;-60
2023/06/10 03:11:32;;;;;;;5.23;4.73;;;22.90;88.60;;;;;;5028894;28;20552;-60
2023/06/10 03:13:59;;;;;;;5.33;4.93;;;23.00;88.70;;;;;;5031688;28;20467;-59
2023/06/10 03:16:27;;;;;;;5.30;4.90;;;23.00;88.70;;;;;;5031582;28;20463;-60
2023/06/10 03:18:54;;;;;;;5.47;4.97;;;23.00;88.70;;;;;;5039624;28;20914;-60
2023/06/10 03:21:22;;;;;;;5.33;4.93;;;23.00;88.70;;;;;;5038614;28;21010;-59
2023/06/10 03:23:48;;;;;;;5.60;5.20;;;23.00;88.70;;;;;;5035065;28;20474;-59
2023/06/10 03:26:15;;;;;;;5.27;4.87;;;23.00;88.70;;;;;;5029390;28;20469;-60
2023/06/10 03:28:42;;;;;;;4.23;3.93;;;23.00;88.70;;;;;;5027004;28;20470;-59
2023/06/10 03:31:09;;;;;;;5.70;5.20;;;23.00;88.70;;;;;;5033450;28;20977;-60
2023/06/10 03:33:35;;;;;;;5.40;5.00;;;23.00;88.70;;;;;;5027894;28;20782;-59
2023/06/10 03:36:02;;;;;;;5.80;5.30;;;23.00;88.70;;;;;;5042758;28;20549;-59
2023/06/10 03:38:30;;;;;;;5.73;5.27;;;23.00;88.70;;;;;;5034505;28;20545;-59
2023/06/10 03:40:57;;;;;;;4.63;4.27;;;23.00;88.70;;;;;;5040293;28;20482;-59
2023/06/10 03:43:23;;;;;;;5.17;4.77;;;22.90;88.60;;;;;;5041722;28;20450;-60
2023/06/10 03:45:50;;;;;;;5.27;4.87;;;23.00;88.70;;;;;;5034629;28;20458;-59
2023/06/10 03:48:17;;;;;;;5.10;4.70;;;23.00;88.70;;;;;;5032667;28;20458;-59
2023/06/10 03:50:44;;;;;;;5.27;4.77;;;22.90;88.50;;;;;;5037052;28;20553;-60
2023/06/10 03:53:10;;;;;;;5.03;4.63;;;23.00;88.60;;;;;;5028949;28;20887;-60
2023/06/10 03:55:39;;;;;;;5.50;5.10;;;23.00;88.70;;;;;;5029407;28;20482;-59
2023/06/10 03:58:06;;;;;;;4.87;4.47;;;22.90;88.60;;;;;;5037019;28;20464;-59
2023/06/10 04:00:41;;;;;;;5.37;4.97;;;23.00;88.70;;;;;;5037590;28;20469;-59
2023/06/10 04:03:08;;;;;;;5.63;5.13;;;22.90;88.60;;;;;;5032907;28;20864;-60
2023/06/10 04:05:35;;;;;;;5.60;5.20;;;23.00;88.70;;;;;;5032910;28;20452;-60
2023/06/10 04:08:02;;;;;;;5.30;4.90;;;23.00;88.70;;;;;;5037828;28;20455;-60
2023/06/10 04:10:29;;;;;;;5.30;4.90;;;23.00;88.70;;;;;;5034997;28;20454;-60
2023/06/10 04:12:57;;;;;;;5.00;4.60;;;23.00;88.70;;;;;;5032605;28;20463;-60
2023/06/10 04:15:23;;;;;;;5.83;5.23;;;23.00;88.70;;;;;;5024936;28;20473;-60
2023/06/10 04:17:50;;;;;;;6.50;6.00;;;23.00;88.70;;;;;;5030884;28;20459;-60
2023/06/10 04:20:17;;;;;;;5.10;4.70;;;23.00;88.70;;;;;;5044546;28;20477;-60
2023/06/10 04:22:44;;;;;;;5.00;4.70;;;23.00;88.70;;;;;;5046767;28;20875;-60
2023/06/10 04:25:10;;;;;;;5.60;5.10;;;22.90;88.60;;;;;;5045483;28;20490;-60
2023/06/10 04:27:37;;;;;;;6.37;5.87;;;22.90;88.60;;;;;;5042809;28;20471;-59
2023/06/10 04:30:07;;;;;;;5.00;4.60;;;22.90;88.60;;;;;;5029665;28;20451;-60
2023/06/10 04:32:33;;;;;;;5.60;5.20;;;23.00;88.70;;;;;;5032455;28;20493;-60
2023/06/10 04:35:01;;;;;;;4.87;4.50;;;23.00;88.70;;;;;;5026730;28;20458;-61
2023/06/10 04:37:29;;;;;;;5.80;5.40;;;22.90;88.60;;;;;;5027528;28;21096;-60
2023/06/10 04:39:55;;;;;;;4.87;4.57;;;23.00;88.70;;;;;;5036867;28;21060;-60
2023/06/10 04:42:22;;;;;;;4.63;4.33;;;22.90;88.60;;;;;;5029890;28;20521;-61
2023/06/10 04:44:49;;;;;;;5.30;4.90;;;23.00;88.70;;;;;;5038889;28;21069;-60
2023/06/10 04:47:17;;;;;;;5.60;5.20;;;22.90;88.60;;;;;;5040935;28;20822;-60
2023/06/10 04:49:44;;;;;;;4.87;4.53;;;22.90;88.50;;;;;;5037776;28;20527;-60
2023/06/10 04:52:11;;;;;;;4.70;4.30;;;22.90;88.60;;;;;;5043752;28;20465;-60
2023/06/10 04:54:38;;;;;;;4.60;4.27;;;22.90;88.50;;;;;;5042327;28;20461;-60
2023/06/10 04:57:05;;;;;;;5.67;5.23;;;22.90;88.60;;;;;;5034267;28;20569;-60
2023/06/10 04:59:32;;;;;;;5.43;4.90;;;22.90;88.60;;;;;;5020111;28;20454;-60
2023/06/10 05:01:59;;;;;;;5.77;5.30;;;22.90;88.60;;;;;;5037112;28;20962;-60
2023/06/10 05:04:27;;;;;;;5.57;5.10;;;22.90;88.60;;;;;;5027564;28;20457;-60
2023/06/10 05:06:53;;;;;;;5.63;5.23;;;22.90;88.60;;;;;;5036873;28;20492;-60
2023/06/10 05:09:20;;;;;;;5.97;5.47;;;22.90;88.60;;;;;;5037430;28;20454;-60
2023/06/10 05:11:47;;;;;;;5.67;5.27;;;22.90;89.40;;;;;;5035201;28;20554;-60
2023/06/10 05:14:16;;;;;;;6.00;5.50;;;22.90;88.60;;;;;;5040941;28;20462;-60
2023/06/10 05:16:43;;;;;;;5.43;5.03;;;22.90;88.50;;;;;;5030927;28;20461;-60
2023/06/10 05:19:09;;;;;;;4.80;4.50;;;22.90;88.60;;;;;;5032082;28;20497;-60
2023/06/10 05:21:37;;;;;;;4.47;4.07;;;22.90;88.60;;;;;;5038018;28;20478;-60
2023/06/10 05:24:05;;;;;;;5.60;5.20;;;22.90;88.50;;;;;;5034356;28;20798;-60
2023/06/10 05:26:33;;;;;;;5.00;4.60;;;22.90;88.60;;;;;;5038053;28;20833;-60
2023/06/10 05:28:59;;;;;;;5.67;5.27;;;22.90;88.60;;;;;;5045266;28;20515;-60
2023/06/10 05:31:26;;;;;;;4.87;4.50;;;22.90;88.60;;;;;;5039436;28;20461;-60
2023/06/10 05:33:52;;;;;;;5.17;4.80;;;22.90;88.60;;;;;;5027541;28;20469;-60
2023/06/10 05:36:19;;;;;;;4.77;4.40;;;22.90;89.30;;;;;;5036711;28;20516;-60
2023/06/10 05:38:47;;;;;;;4.70;4.40;;;22.90;88.60;;;;;;5027415;28;20457;-60
2023/06/10 05:41:14;;;;;;;5.50;5.10;;;22.90;88.60;;;;;;5029643;28;20839;-60
2023/06/10 05:43:41;;;;;;;5.00;4.60;;;22.90;88.60;;;;;;5035132;28;20929;-60
2023/06/10 05:46:07;;;;;;;5.70;5.30;;;22.90;88.60;;;;;;5037388;28;20466;-60
2023/06/10 05:48:34;;;;;;;5.50;5.10;;;22.90;88.60;;;;;;5027489;28;20458;-60
2023/06/10 05:51:01;;;;;;;5.63;5.13;;;22.90;88.50;;;;;;5040652;28;20458;-60
2023/06/10 05:53:27;;;;;;;5.67;5.20;;;22.90;88.60;;;;;;5026889;28;20465;-60
2023/06/10 05:55:57;;;;;;;4.83;4.53;;;22.90;88.60;;;;;;5041768;28;20457;-60
2023/06/10 05:58:24;;;;;;;5.63;5.17;;;22.90;88.60;;;;;;5029128;28;20536;-60
2023/06/10 06:00:51;;;;;;;5.77;5.33;;;22.90;88.60;;;;;;5026936;28;20462;-59
2023/06/10 06:03:18;;;;;;;4.57;4.27;;;22.90;88.60;;;;;;5029019;28;20997;-60
2023/06/10 06:05:46;;;;;;;4.93;4.63;;;22.90;88.60;;;;;;5030306;28;20461;-60
2023/06/10 06:08:13;;;;;;;5.83;5.40;;;22.90;88.60;;;;;;5033634;28;20464;-61
2023/06/10 06:10:40;;;;;;;4.50;4.20;;;22.90;88.60;;;;;;5029587;28;20550;-60
2023/06/10 06:13:08;;;;;;;4.93;4.53;;;22.90;88.50;;;;;;5031779;28;20453;-60
2023/06/10 06:15:34;;;;;;;4.50;4.20;;;22.90;88.50;;;;;;5041102;28;20458;-60
2023/06/10 06:18:01;;;;;;;4.93;4.53;;;22.90;88.50;;;;;;5038929;28;20476;-60
2023/06/10 06:20:28;;;;;;;5.20;4.80;;;22.90;88.50;;;;;;5034683;28;20457;-60
2023/06/10 06:22:55;;;;;;;5.57;5.07;;;22.90;88.50;;;;;;5033534;28;20485;-60
2023/06/10 06:25:23;;;;;;;5.57;5.17;;;22.90;88.50;;;;;;5046264;28;20501;-60
2023/06/10 06:27:49;;;;;;;5.10;4.73;;;22.90;89.30;;;;;;5040781;28;20466;-60
2023/06/10 06:30:17;;;;;;;6.27;5.77;;;22.90;88.50;;;;;;5036138;28;21067;-60
2023/06/10 06:32:44;;;;;;;5.63;5.10;;;22.90;88.50;;;;;;5042728;28;20562;-60
2023/06/10 06:35:11;;;;;;;5.13;4.73;;;22.90;88.50;;;;;;5047837;28;20789;-60
2023/06/10 06:37:37;;;;;;;5.00;4.50;;;22.90;88.50;;;;;;5038265;28;20458;-60
2023/06/10 06:40:05;;;;;;;5.07;4.57;;;22.90;88.60;;;;;;5036804;28;20461;-60
2023/06/10 06:42:32;;;;;;;4.93;4.63;;;22.90;88.50;;;;;;5038475;28;20488;-60
2023/06/10 06:44:58;;;;;;;5.00;4.60;;;22.90;88.50;;;;;;5036644;28;20466;-60
2023/06/10 06:47:26;;;;;;;5.10;4.70;;;22.90;88.50;;;;;;5044661;28;20551;-60
2023/06/10 06:49:53;;;;;;;5.17;4.77;;;22.90;88.50;;;;;;5042459;28;20529;-60
2023/06/10 06:52:20;;;;;;;4.20;3.90;;;22.90;88.50;;;;;;5037784;28;20519;-60
2023/06/10 06:54:47;;;;;;;5.77;5.20;;;22.90;88.40;;;;;;5038233;28;20481;-60
2023/06/10 06:57:13;;;;;;;4.97;4.50;;;22.90;88.40;;;;;;5043032;28;20954;-60
2023/06/10 06:59:40;;;;;;;4.80;4.40;;;22.90;88.40;;;;;;5039604;28;20465;-60
2023/06/10 07:02:07;;;;;;;4.47;4.07;;;22.90;88.30;;;;;;5026155;28;20486;-60
2023/06/10 07:04:35;;;;;;;4.87;4.40;;;22.90;88.40;;;;;;5027301;28;21015;-60
2023/06/10 07:07:02;;;;;;;5.20;4.80;;;22.90;88.20;;;;;;5037164;28;20473;-60
2023/06/10 07:09:29;;;;;;;4.43;4.13;;;22.90;88.20;;;;;;5037684;28;20494;-60
2023/06/10 07:11:55;;;;;;;4.50;4.10;;;22.90;88.20;;;;;;5050468;28;20481;-61
2023/06/10 07:14:22;;;;;;;4.40;4.03;;;22.90;88.20;;;;;;5035092;28;20978;-60
2023/06/10 07:16:49;;;;;;;5.00;4.60;;;22.90;88.60;;;;;;5034467;28;20455;-60
2023/06/10 07:19:16;;;;;;;4.80;4.33;;;22.90;88.10;;;;;;5027010;28;20830;-60
2023/06/10 07:21:44;;;;;;;3.87;3.53;;;22.90;88.10;;;;;;5040897;28;20473;-61
2023/06/10 07:24:12;;;;;;;6.50;3.87;;;22.90;87.90;;;;;;5032322;28;21913;-62
2023/06/10 07:26:39;;;;;;;4.90;4.50;;;22.90;87.90;;;;;;5034815;28;20457;-60
2023/06/10 07:29:05;;;;;;;4.70;4.30;;;22.90;87.40;;;;;;5042201;28;20462;-60
2023/06/10 07:31:32;;;;;;;4.20;3.80;;;22.90;87.30;;;;;;5036709;28;20511;-60
2023/06/10 07:33:58;;;;;;;5.30;4.00;;;22.90;87.40;;;;;;5042053;28;20461;-60
2023/06/10 07:36:27;;;;;;;4.70;3.73;;;22.90;87.30;;;;;;5037431;28;20457;-60
2023/06/10 07:38:55;;;;;;;4.13;3.60;;;22.90;87.30;;;;;;5033937;28;20542;-60
2023/06/10 07:41:24;;;;;;;4.80;4.00;;;22.90;87.30;;;;;;5036949;28;20451;-60
2023/06/10 07:43:54;;;;;;;4.77;4.37;;;22.90;87.30;;;;;;5037944;28;20606;-59
2023/06/10 07:46:21;;;;;;;6.20;4.30;;;22.90;87.20;;;;;;5042295;28;20450;-60
2023/06/10 07:48:47;;;;;;;7.00;3.83;;;22.90;87.30;;;;;;5039428;28;20468;-59
2023/06/10 07:51:14;;;;;;;4.13;3.63;;;22.90;87.10;;;;;;5041496;28;20492;-60
2023/06/10 07:53:41;;;;;;;4.70;4.30;;;22.90;87.10;;;;;;5044879;28;20939;-60
2023/06/10 07:56:09;;;;;;;3.67;3.37;;;22.90;87.00;;;;;;5044031;28;20909;-60
2023/06/10 07:58:35;;;;;;;4.40;3.87;;;22.90;87.00;;;;;;5036151;28;20460;-60
2023/06/10 08:01:02;;;;;;;4.40;3.00;;;22.90;87.00;;;;;;5044858;28;20454;-61
2023/06/10 08:03:29;;;;;;;4.90;3.80;;;22.90;87.00;;;;;;5041182;28;20478;-60
2023/06/10 08:05:55;;;;;;;4.40;4.00;;;22.90;87.00;;;;;;5044474;28;20568;-60
2023/06/10 08:08:22;;;;;;;4.40;3.97;;;22.90;87.00;;;;;;5043113;28;20465;-60
2023/06/10 08:10:49;;;;;;;5.90;3.63;;;22.90;87.00;;;;;;5046041;28;20461;-60
2023/06/10 08:13:17;;;;;;;3.63;3.33;;;22.90;87.00;;;;;;5048964;28;20471;-60
2023/06/10 08:15:43;;;;;;;4.57;4.20;;;22.90;87.00;;;;;;5053370;28;20512;-60
2023/06/10 08:18:10;;;;;;;4.40;4.00;;;22.90;87.00;;;;;;5041942;28;20476;-60
2023/06/10 08:20:37;;;;;;;4.60;3.03;;;22.90;87.00;;;;;;5046233;28;20473;-60
2023/06/10 08:23:03;;;;;;;3.63;3.20;;;22.90;87.00;;;;;;5049980;28;20474;-59
2023/06/10 08:25:30;;;;;;;3.57;3.27;;;22.90;87.00;;;;;;5045962;28;20482;-60
2023/06/10 08:27:57;;;;;;;3.80;3.50;;;22.90;87.10;;;;;;5033303;28;20552;-60
2023/06/10 08:30:25;;;;;;;4.40;4.00;;;22.90;87.10;;;;;;5032789;28;20462;-60
2023/06/10 08:32:52;;;;;;;3.47;3.17;;;22.90;87.10;;;;;;5038974;28;20462;-59
2023/06/10 08:35:19;;;;;;;3.87;3.57;;;22.90;87.10;;;;;;5039235;28;20541;-59
2023/06/10 08:37:46;;;;;;;4.40;3.40;;;22.90;87.10;;;;;;5038730;28;20458;-60
2023/06/10 08:40:13;;;;;;;3.43;3.13;;;22.90;87.10;;;;;;5038816;28;20954;-60
2023/06/10 08:42:45;;;;;;;3.50;3.00;;;22.90;87.30;;;;;;5038596;28;20477;-60
2023/06/10 08:45:18;;;;;;;3.73;3.43;;;22.90;87.20;;;;;;5039724;28;20627;-60
2023/06/10 08:47:50;;;;;;;4.83;3.60;;;22.90;87.10;;;;;;5035524;28;20554;-60
2023/06/10 08:50:17;;;;;;;3.00;2.70;;;22.90;87.00;;;;;;5033233;28;20482;-61
2023/06/10 08:52:47;;;;;;;4.83;3.83;;;22.90;86.90;;;;;;5041672;28;20508;-59
2023/06/10 08:55:17;;;;;;;5.40;3.90;;;23.00;87.00;;;;;;5049736;28;20496;-60
2023/06/10 08:57:45;;;;;;;4.00;3.60;;;22.90;86.90;;;;;;5028363;28;20643;-60
2023/06/10 09:00:13;;;;;;;5.80;3.40;;;22.90;86.60;;;;;;5026872;28;20457;-60
2023/06/10 09:02:40;;;;;;;3.90;3.40;;;23.00;86.70;;;;;;5032259;28;21001;-59
2023/06/10 09:05:10;;;;;;;4.33;3.40;;;23.00;86.50;;;;;;5033785;28;20462;-60
2023/06/10 09:07:37;;;;;;;3.77;3.30;;;23.00;86.40;;;;;;5038376;28;20980;-60
2023/06/10 09:10:06;;;;;;;4.27;3.70;;;22.90;86.30;;;;;;5038572;28;20465;-60
2023/06/10 09:12:33;;;;;;;3.97;3.63;;;23.00;86.40;;;;;;5036187;28;20973;-59
2023/06/10 09:15:00;;;;;;;3.30;3.10;;;23.00;86.30;;;;;;5039376;28;20466;-60
2023/06/10 09:17:27;;;;;;;4.10;3.77;;;23.00;86.30;;;;;;5046365;28;20469;-60
2023/06/10 09:19:55;;;;;;;6.97;3.33;;;23.00;86.30;;;;;;5041398;28;20458;-60
2023/06/10 09:22:23;;;;;;;3.97;3.47;;;23.00;86.30;;;;;;5047360;28;20458;-60
2023/06/10 09:24:50;;;;;;;4.57;3.10;;;23.00;86.20;;;;;;5041826;28;20576;-60
2023/06/10 09:27:17;;;;;;;3.33;2.83;;;23.00;86.20;;;;;;5033317;28;20513;-60
2023/06/10 09:29:48;;;;;;;5.27;4.13;;;23.00;86.20;;;;;;5044069;28;20818;-60
2023/06/10 09:32:16;;;;;;;3.33;3.03;;;23.00;86.20;;;;;;5040894;28;20494;-60
2023/06/10 09:34:42;;;;;;;5.93;3.70;;;23.00;86.10;;;;;;5042974;28;20470;-60
2023/06/10 09:37:12;;;;;;;4.37;3.97;;;23.00;86.10;;;;;;5039386;28;20458;-60
2023/06/10 09:39:40;;;;;;;3.50;2.70;;;23.00;86.00;;;;;;5043681;28;20490;-60
2023/06/10 09:42:17;;;;;;;3.20;2.90;;;23.00;86.00;;;;;;5043345;28;20806;-60
2023/06/10 09:44:51;;;;;;;3.50;3.17;;;23.00;86.10;;;;;;5033572;28;20567;-60
2023/06/10 09:47:21;;;;;;;3.20;3.00;;;23.00;86.00;;;;;;5046049;28;20509;-60
2023/06/10 09:49:48;;;;;;;4.30;3.33;;;23.00;86.00;;;;;;5034385;28;20480;-60
2023/06/10 09:52:14;;;;;;;5.07;3.17;;;23.00;86.80;;;;;;5042525;28;20470;-60
2023/06/10 09:54:45;;;;;;;4.13;3.37;;;23.00;85.90;;;;;;5038888;28;21122;-59
2023/06/10 09:57:12;;;;;;;5.47;3.90;;;23.00;85.90;;;;;;5044035;28;20988;-60
2023/06/10 09:59:39;;;;;;;4.80;3.70;;;23.00;85.90;;;;;;5035271;28;20455;-60
2023/06/10 10:02:06;;;;;;;3.93;3.60;;;23.00;85.90;;;;;;5042280;28;20461;-60
2023/06/10 10:04:36;;;;;;;8.23;3.63;;;23.00;86.00;;;;;;5035194;28;20482;-60
2023/06/10 10:07:04;;;;;;;4.90;3.77;;;23.00;86.00;;;;;;5041080;28;20944;-60
2023/06/10 10:09:31;;;;;;;5.50;2.97;;;23.00;86.10;;;;;;5044332;28;20458;-60
2023/06/10 10:12:00;;;;;;;4.07;3.77;;;23.00;86.10;;;;;;5039403;28;20865;-60
2023/06/10 10:14:32;;;;;;;11.87;3.60;;;23.00;86.20;;;;;;5038644;28;20938;-60
2023/06/10 10:17:02;;;;;;;5.30;3.80;;;23.00;86.30;;;;;;5031219;28;20624;-59
2023/06/10 10:19:31;;;;;;;8.77;4.27;;;23.10;86.40;;;;;;5040791;28;20466;-60
2023/06/10 10:22:04;;;;;;;4.97;4.47;;;23.10;86.50;;;;;;5038498;28;20455;-60
2023/06/10 10:24:34;;;;;;;4.90;3.73;;;23.10;86.40;;;;;;5043924;28;20497;-60
2023/06/10 10:27:08;;;;;;;5.60;3.70;;;23.10;86.30;;;;;;5038935;28;20811;-60
2023/06/10 10:29:40;;;;;;;4.43;4.03;;;23.10;86.30;;;;;;5038537;28;20453;-60
2023/06/10 10:32:09;;;;;;;6.03;3.83;;;23.10;86.30;;;;;;5042560;28;20470;-60
2023/06/10 10:34:44;;;;;;;3.57;3.27;;;23.10;86.40;;;;;;5040680;28;20470;-60
2023/06/10 10:37:10;;;;;;;3.53;3.23;;;23.10;86.30;;;;;;5046092;28;20466;-60
2023/06/10 10:39:37;;;;;;;5.13;4.50;;;23.10;86.30;;;;;;5046780;28;20438;-60
2023/06/10 10:42:09;;;;;;;5.33;3.90;;;23.10;86.30;;;;;;5053780;28;20457;-60
2023/06/10 10:44:37;;;;;;;4.93;3.87;;;23.10;86.30;;;;;;5037401;28;20486;-60
2023/06/10 10:47:04;;;;;;;5.13;3.50;;;23.10;86.10;;;;;;5040790;28;20567;-60
2023/06/10 10:49:31;;;;;;;5.03;4.53;;;23.10;86.20;;;;;;5045577;28;20537;-60
2023/06/10 10:51:59;;;;;;;4.63;4.23;;;23.10;86.10;;;;;;5049518;28;20872;-60
2023/06/10 10:54:32;;;;;;;5.33;4.83;;;23.10;86.10;;;;;;5049533;28;20532;-60
2023/06/10 10:57:14;;;;;;;5.13;4.53;;;23.10;86.10;;;;;;5049639;28;20488;-60
2023/06/10 10:59:55;;;;;;;4.87;3.97;;;23.10;86.00;;;;;;5044863;28;20458;-60
2023/06/10 11:02:35;;;;;;;5.90;3.93;;;23.10;86.00;;;;;;5048878;28;20454;-60
2023/06/10 11:05:03;;;;;;;5.47;4.50;;;23.10;86.00;;;;;;5044351;28;20488;-60
2023/06/10 11:07:33;;;;;;;5.20;4.73;;;23.10;85.90;;;;;;5043843;28;20467;-60
2023/06/10 11:10:01;;;;;;;4.93;4.53;;;23.10;85.90;;;;;;5050366;28;20508;-60
2023/06/10 11:12:48;;;;;;;4.50;4.10;;;23.10;85.90;;;;;;5048394;28;20453;-60
2023/06/10 11:15:20;;;;;;;4.33;3.93;;;23.10;86.60;;;;;;5047536;28;20831;-60
2023/06/10 11:18:23;;;;;;;4.37;3.97;;;23.10;85.80;;;;;;5049172;28;20549;-60
2023/06/10 11:20:55;;;;;;;4.40;4.10;;;23.10;85.80;;;;;;5055096;28;20449;-60
2023/06/10 11:23:36;;;;;;;4.60;4.27;;;23.10;85.70;;;;;;5048464;28;20536;-59
2023/06/10 11:26:21;;;;;;;5.20;4.00;;;23.10;85.60;;;;;;5045950;28;20507;-60
2023/06/10 11:29:08;;;;;;;5.67;4.73;;;23.10;85.60;;;;;;5043849;28;20544;-60
2023/06/10 11:31:40;;;;;;;4.13;3.70;;;23.10;85.50;;;;;;5039841;28;20541;-60
2023/06/10 11:34:08;;;;;;;4.83;4.40;;;23.10;85.40;;;;;;5041587;28;20639;-60
2023/06/10 11:36:40;;;;;;;5.50;5.00;;;23.10;85.30;;;;;;5043837;28;20450;-60
2023/06/10 11:39:07;;;;;;;4.57;4.17;;;23.10;85.30;;;;;;5047485;28;20524;-60
2023/06/10 11:41:35;;;;;;;6.97;5.00;;;23.10;85.20;;;;;;5049108;28;20766;-59
2023/06/10 11:44:05;;;;;;;5.03;4.53;;;23.10;85.10;;;;;;5041340;28;20489;-60
2023/06/10 11:46:32;;;;;;;5.40;4.90;;;23.10;85.10;;;;;;5036447;28;20542;-60
2023/06/10 11:48:59;;;;;;;6.53;4.70;;;23.10;85.00;;;;;;5043844;28;20466;-60
2023/06/10 11:51:27;;;;;;;5.40;4.90;;;23.10;84.80;;;;;;5048590;28;20458;-60
2023/06/10 11:53:54;;;;;;;7.53;4.77;;;23.10;84.80;;;;;;5046386;28;20986;-60
2023/06/10 11:56:21;;;;;;;5.80;5.07;;;23.10;84.70;;;;;;5046508;28;20453;-60
2023/06/10 11:58:53;;;;;;;5.40;4.83;;;23.10;84.60;;;;;;5047884;28;20489;-59
2023/06/10 12:01:22;;;;;;;4.43;4.03;;;23.20;84.60;;;;;;5038488;28;20465;-60
2023/06/10 12:03:57;;;;;;;4.80;4.23;;;23.10;84.40;;;;;;5042748;28;20561;-60
2023/06/10 12:06:23;;;;;;;5.50;4.97;;;23.10;84.40;;;;;;5040904;28;20464;-61
2023/06/10 12:08:50;;;;;;;5.40;4.90;;;23.20;84.50;;;;;;5042616;28;20470;-59
2023/06/10 12:11:17;;;;;;;5.80;5.20;;;23.10;84.50;;;;;;5041621;28;20984;-59
2023/06/10 12:13:49;;;;;;;5.53;4.00;;;23.20;84.40;;;;;;5045446;28;20473;-60
2023/06/10 12:16:16;;;;;;;5.30;4.33;;;23.10;84.20;;;;;;5041440;28;20840;-60
2023/06/10 12:18:46;;;;;;;4.27;3.87;;;23.20;84.30;;;;;;5041172;28;20467;-60
2023/06/10 12:21:20;;;;;;;5.50;3.97;;;23.20;84.30;;;;;;5045118;28;20548;-60
2023/06/10 12:24:05;;;;;;;5.23;4.27;;;23.20;84.10;;;;;;5045747;28;20559;-60
2023/06/10 12:26:36;;;;;;;5.77;5.27;;;23.20;84.10;;;;;;5042615;28;21582;-60
2023/06/10 12:29:12;;;;;;;4.77;4.37;;;23.20;84.20;;;;;;5040685;28;21084;-60
2023/06/10 12:32:00;;;;;;;5.60;4.63;;;23.20;84.00;;;;;;5036334;28;20877;-60
2023/06/10 12:34:33;;;;;;;5.13;4.57;;;23.20;84.00;;;;;;5043545;28;20601;-60
2023/06/10 12:36:59;;;;;;;4.00;3.70;;;23.20;83.90;;;;;;5041777;28;20462;-60
2023/06/10 12:39:27;;;;;;;5.50;5.00;;;23.20;83.90;;;;;;5040034;28;20462;-60
2023/06/10 12:41:53;;;;;;;5.13;4.63;;;23.20;83.90;;;;;;5046692;28;20464;-60
2023/06/10 12:44:33;;;;;;;5.30;4.80;;;23.20;83.90;;;;;;5041437;28;20477;-60
2023/06/10 12:46:59;;;;;;;5.53;4.70;;;23.10;83.70;;;;;;5047695;28;20462;-60
2023/06/10 12:49:27;;;;;;;5.83;5.33;;;23.20;83.80;;;;;;5046229;28;20458;-60
2023/06/10 12:51:55;;;;;;;4.77;4.37;;;23.20;83.80;;;;;;5047876;28;20462;-61
2023/06/10 12:54:23;;;;;;;5.60;4.87;;;23.20;83.80;;;;;;5046880;28;20532;-61